Time;durP1;ratioP1;P1;durP2;ratioP2;P2;SDS_P1;SDS_P2;PMS_P1;PMS_P2;Temp;Humidity;BMP_temperature;BMP_pressure;BME280_temperature;BME280_humidity;BME280_pressure;Samples;Min_cycle;Max_cycle;Signal;HPM_P1;HPM_P2
2023/08/16 00:01:31;;;;;;;6.30;4.05;;;;;;;;;;5029506;28;20459;-71
2023/08/16 00:03:58;;;;;;;9.13;4.40;;;;;;;;;;5028006;28;20504;-70
2023/08/16 00:06:26;;;;;;;6.45;3.90;;;;;;;;;;5028758;28;20048;-71
2023/08/16 00:08:58;;;;;;;7.93;4.22;;;;;;;;;;5028349;28;20072;-70
2023/08/16 00:11:24;;;;;;;5.73;4.10;;;;;;;;;;5023477;28;20060;-71
2023/08/16 00:13:51;;;;;;;5.03;3.63;;;;;;;;;;5028399;28;20084;-70
2023/08/16 00:16:19;;;;;;;5.93;4.07;;;;;;;;;;5028650;28;20053;-71
2023/08/16 00:18:47;;;;;;;5.85;3.70;;;;;;;;;;5028184;28;20080;-70
2023/08/16 00:21:14;;;;;;;6.60;3.78;;;;;;;;;;5027322;28;20057;-70
2023/08/16 00:23:42;;;;;;;4.40;3.53;;;;;;;;;;5029356;28;20045;-70
2023/08/16 00:26:09;;;;;;;6.88;3.97;;;;;;;;;;5025728;28;20056;-71
2023/08/16 00:28:36;;;;;;;5.82;3.95;;;;;;;;;;5029945;28;20049;-71
2023/08/16 00:31:04;;;;;;;5.85;3.92;;;;;;;;;;5028761;28;20057;-70
2023/08/16 00:33:31;;;;;;;7.90;3.75;;;;;;;;;;5028888;28;20049;-71
2023/08/16 00:36:00;;;;;;;5.93;3.80;;;;;;;;;;5028329;28;20484;-71
2023/08/16 00:38:27;;;;;;;5.75;3.65;;;;;;;;;;5024783;28;20053;-71
2023/08/16 00:40:54;;;;;;;5.40;3.70;;;;;;;;;;5027584;28;20059;-70
2023/08/16 00:43:21;;;;;;;4.97;3.60;;;;;;;;;;5025109;28;20065;-71
2023/08/16 00:45:49;;;;;;;7.53;3.72;;;;;;;;;;5028335;28;20389;-70
2023/08/16 00:48:17;;;;;;;7.40;3.50;;;;;;;;;;5025481;28;20045;-70
2023/08/16 00:50:44;;;;;;;4.07;3.17;;;;;;;;;;5022643;28;20050;-70
2023/08/16 00:53:13;;;;;;;4.40;3.40;;;;;;;;;;5029420;28;20053;-70
2023/08/16 00:55:39;;;;;;;7.35;3.75;;;;;;;;;;5032194;28;20519;-70
2023/08/16 00:58:07;;;;;;;4.97;3.60;;;;;;;;;;5032525;28;20103;-70
2023/08/16 01:00:34;;;;;;;6.53;3.75;;;;;;;;;;5030671;28;20485;-71
2023/08/16 01:03:01;;;;;;;8.45;4.20;;;;;;;;;;5031818;28;20068;-71
2023/08/16 01:05:29;;;;;;;5.45;3.85;;;;;;;;;;5031750;28;20041;-70
2023/08/16 01:07:56;;;;;;;6.63;4.10;;;;;;;;;;5030259;28;20057;-70
2023/08/16 01:10:27;;;;;;;8.93;3.80;;;;;;;;;;5030247;28;20060;-70
2023/08/16 01:12:57;;;;;;;7.10;4.30;;;;;;;;;;5028442;28;20042;-70
2023/08/16 01:15:29;;;;;;;5.03;3.40;;;;;;;;;;5027807;28;20056;-71
2023/08/16 01:17:56;;;;;;;6.78;3.97;;;;;;;;;;5031315;28;20049;-70
2023/08/16 01:20:24;;;;;;;5.57;3.85;;;;;;;;;;5027664;28;20072;-71
2023/08/16 01:22:55;;;;;;;5.78;3.72;;;;;;;;;;5028333;28;20107;-70
2023/08/16 01:25:27;;;;;;;7.82;4.00;;;;;;;;;;5031523;28;20053;-70
2023/08/16 01:27:56;;;;;;;5.28;3.90;;;;;;;;;;5031908;28;20042;-71
2023/08/16 01:30:23;;;;;;;7.65;4.07;;;;;;;;;;5032888;28;20057;-71
2023/08/16 01:32:51;;;;;;;7.32;4.45;;;;;;;;;;5027137;28;20038;-72
2023/08/16 01:35:18;;;;;;;8.38;4.47;;;;;;;;;;5020920;28;20052;-70
2023/08/16 01:37:46;;;;;;;5.72;4.13;;;;;;;;;;5032799;28;20084;-70
2023/08/16 01:40:13;;;;;;;7.05;4.70;;;;;;;;;;5027588;28;20412;-70
2023/08/16 01:42:42;;;;;;;6.60;4.80;;;;;;;;;;5032637;28;20082;-70
2023/08/16 01:45:11;;;;;;;5.45;4.30;;;;;;;;;;5029818;28;20061;-70
2023/08/16 01:47:39;;;;;;;6.18;4.60;;;;;;;;;;5019208;28;20049;-71
2023/08/16 01:50:07;;;;;;;6.65;4.72;;;;;;;;;;5026693;28;20060;-70
2023/08/16 01:52:35;;;;;;;7.95;4.80;;;;;;;;;;5032448;28;20061;-70
2023/08/16 01:55:02;;;;;;;6.18;4.15;;;;;;;;;;5026181;28;20049;-70
2023/08/16 01:57:30;;;;;;;6.85;4.28;;;;;;;;;;5027060;28;20128;-70
2023/08/16 01:59:57;;;;;;;6.40;4.20;;;;;;;;;;5028157;28;20052;-71
2023/08/16 02:02:26;;;;;;;7.35;4.95;;;;;;;;;;5028464;28;20049;-70
2023/08/16 02:04:53;;;;;;;8.38;4.57;;;;;;;;;;5026777;28;20049;-71
2023/08/16 02:07:21;;;;;;;6.47;4.13;;;;;;;;;;5031434;28;20042;-71
2023/08/16 02:09:48;;;;;;;7.10;4.50;;;;;;;;;;5030032;28;20401;-71
2023/08/16 02:12:15;;;;;;;6.70;4.53;;;;;;;;;;5029322;28;20053;-71
2023/08/16 02:14:43;;;;;;;6.22;4.28;;;;;;;;;;5028299;28;20550;-70
2023/08/16 02:17:11;;;;;;;7.78;4.57;;;;;;;;;;5027750;28;20046;-70
2023/08/16 02:19:41;;;;;;;7.07;4.80;;;;;;;;;;5028579;28;20056;-71
2023/08/16 02:22:08;;;;;;;5.88;4.10;;;;;;;;;;5024234;28;20094;-71
2023/08/16 02:24:35;;;;;;;6.05;3.97;;;;;;;;;;5030324;28;20137;-70
2023/08/16 02:27:02;;;;;;;5.75;4.00;;;;;;;;;;5030451;28;20080;-71
2023/08/16 02:29:30;;;;;;;6.32;4.32;;;;;;;;;;5031361;28;20107;-71
2023/08/16 02:31:57;;;;;;;5.90;4.57;;;;;;;;;;5029303;28;20053;-71
2023/08/16 02:34:24;;;;;;;6.35;4.38;;;;;;;;;;5034214;28;20049;-70
2023/08/16 02:36:53;;;;;;;6.97;4.10;;;;;;;;;;5032530;28;20056;-70
2023/08/16 02:39:20;;;;;;;6.55;4.80;;;;;;;;;;5029605;28;20060;-70
2023/08/16 02:41:47;;;;;;;6.13;4.63;;;;;;;;;;5030981;28;20046;-71
2023/08/16 02:44:15;;;;;;;6.28;4.70;;;;;;;;;;5021743;28;20049;-71
2023/08/16 02:46:42;;;;;;;8.45;4.97;;;;;;;;;;5023544;28;20385;-70
2023/08/16 02:49:09;;;;;;;6.18;4.47;;;;;;;;;;5026125;28;20133;-70
2023/08/16 02:51:36;;;;;;;6.07;4.65;;;;;;;;;;5028855;28;20060;-70
2023/08/16 02:54:06;;;;;;;6.78;4.35;;;;;;;;;;5026571;28;20508;-71
2023/08/16 02:56:33;;;;;;;5.60;4.20;;;;;;;;;;5027458;28;20061;-70
2023/08/16 02:59:00;;;;;;;8.88;4.38;;;;;;;;;;5022593;28;20535;-71
2023/08/16 03:01:28;;;;;;;8.77;4.65;;;;;;;;;;5029103;28;20540;-70
2023/08/16 03:03:55;;;;;;;7.53;4.28;;;;;;;;;;5030701;28;20046;-70
2023/08/16 03:06:22;;;;;;;7.22;4.43;;;;;;;;;;5025220;28;20382;-70
2023/08/16 03:08:49;;;;;;;6.40;4.53;;;;;;;;;;5031253;28;20080;-70
2023/08/16 03:11:18;;;;;;;7.35;4.28;;;;;;;;;;5029393;28;20559;-71
2023/08/16 03:13:45;;;;;;;5.82;4.47;;;;;;;;;;5030634;28;20441;-70
2023/08/16 03:16:12;;;;;;;6.15;4.30;;;;;;;;;;5029483;28;20056;-70
2023/08/16 03:18:40;;;;;;;5.80;4.13;;;;;;;;;;5023834;28;20054;-70
2023/08/16 03:21:07;;;;;;;6.32;3.75;;;;;;;;;;5028057;28;20053;-70
2023/08/16 03:23:34;;;;;;;4.00;2.83;;;;;;;;;;5026744;28;20049;-70
2023/08/16 03:26:01;;;;;;;4.00;2.45;;;;;;;;;;5030050;28;20049;-71
2023/08/16 03:28:30;;;;;;;4.78;3.08;;;;;;;;;;5024864;28;20137;-70
2023/08/16 03:30:57;;;;;;;4.72;2.63;;;;;;;;;;5028928;28;20436;-71
2023/08/16 03:33:25;;;;;;;5.53;2.55;;;;;;;;;;5026557;28;20045;-70
2023/08/16 03:35:52;;;;;;;3.40;1.92;;;;;;;;;;5022660;28;20049;-70
2023/08/16 03:38:19;;;;;;;3.00;1.90;;;;;;;;;;5029320;28;20093;-70
2023/08/16 03:40:46;;;;;;;3.63;1.90;;;;;;;;;;5026843;28;20057;-70
2023/08/16 03:43:13;;;;;;;3.92;2.22;;;;;;;;;;5028343;28;20064;-70
2023/08/16 03:45:42;;;;;;;3.47;2.42;;;;;;;;;;5027172;28;20063;-70
2023/08/16 03:48:09;;;;;;;5.35;2.70;;;;;;;;;;5026601;28;20155;-71
2023/08/16 03:50:36;;;;;;;3.90;2.47;;;;;;;;;;5026831;28;20045;-70
2023/08/16 03:53:04;;;;;;;4.13;2.85;;;;;;;;;;5029686;28;20085;-70
2023/08/16 03:55:31;;;;;;;6.07;3.08;;;;;;;;;;5026046;28;20052;-70
2023/08/16 03:57:58;;;;;;;4.93;3.03;;;;;;;;;;5026084;28;20045;-71
2023/08/16 04:00:26;;;;;;;6.32;3.17;;;;;;;;;;5027363;28;20049;-71
2023/08/16 04:02:55;;;;;;;4.85;3.25;;;;;;;;;;5029763;28;20493;-70
2023/08/16 04:05:22;;;;;;;4.00;2.83;;;;;;;;;;5029332;28;20076;-70
2023/08/16 04:07:49;;;;;;;4.70;3.13;;;;;;;;;;5029931;28;20408;-70
2023/08/16 04:10:16;;;;;;;4.97;3.60;;;;;;;;;;5025873;28;20045;-70
2023/08/16 04:12:44;;;;;;;5.00;3.40;;;;;;;;;;5029325;28;20049;-70
2023/08/16 04:15:11;;;;;;;4.30;3.17;;;;;;;;;;5039202;28;20800;-71
2023/08/16 04:17:38;;;;;;;6.35;3.17;;;;;;;;;;5028196;28;20496;-71
2023/08/16 04:20:08;;;;;;;4.80;2.70;;;;;;;;;;5020539;28;20041;-71
2023/08/16 04:22:35;;;;;;;3.17;2.30;;;;;;;;;;5027622;28;20061;-71
2023/08/16 04:25:03;;;;;;;3.42;1.95;;;;;;;;;;5025832;28;20085;-71
2023/08/16 04:27:30;;;;;;;2.17;1.67;;;;;;;;;;5029379;28;20127;-70
2023/08/16 04:29:58;;;;;;;1.90;1.65;;;;;;;;;;5027072;28;20064;-70
2023/08/16 04:32:25;;;;;;;6.32;1.20;;;;;;;;;;5028993;28;20489;-71
2023/08/16 04:34:52;;;;;;;1.20;1.10;;;;;;;;;;5027467;28;20050;-71
2023/08/16 04:37:21;;;;;;;1.52;1.00;;;;;;;;;;5029056;28;20049;-70
2023/08/16 04:39:49;;;;;;;2.42;1.45;;;;;;;;;;5029032;28;20437;-70
2023/08/16 04:42:17;;;;;;;1.88;1.30;;;;;;;;;;5029634;28;20152;-71
2023/08/16 04:44:44;;;;;;;1.55;1.23;;;;;;;;;;5028567;28;20108;-71
2023/08/16 04:47:11;;;;;;;1.70;1.38;;;;;;;;;;5025577;28;20059;-72
2023/08/16 04:49:39;;;;;;;1.92;1.52;;;;;;;;;;5027817;28;20050;-71
2023/08/16 04:52:06;;;;;;;2.92;1.80;;;;;;;;;;5029123;28;20045;-71
2023/08/16 04:54:35;;;;;;;2.33;1.52;;;;;;;;;;5025753;28;20053;-70
2023/08/16 04:57:03;;;;;;;3.10;1.75;;;;;;;;;;5026301;28;20119;-71
2023/08/16 04:59:30;;;;;;;4.10;1.80;;;;;;;;;;5026004;28;20050;-70
2023/08/16 05:01:58;;;;;;;2.40;2.00;;;;;;;;;;5026157;28;20408;-71
2023/08/16 05:04:25;;;;;;;2.40;1.75;;;;;;;;;;5027933;28;20444;-70
2023/08/16 05:06:52;;;;;;;2.20;1.60;;;;;;;;;;5027189;28;20583;-70
2023/08/16 05:09:19;;;;;;;2.10;1.70;;;;;;;;;;5025455;28;20066;-69
2023/08/16 05:11:48;;;;;;;1.85;1.70;;;;;;;;;;5023967;28;20060;-70
2023/08/16 05:14:15;;;;;;;1.70;1.60;;;;;;;;;;5027356;28;20053;-72
2023/08/16 05:16:42;;;;;;;2.00;1.70;;;;;;;;;;5021929;28;20103;-70
2023/08/16 05:19:10;;;;;;;3.72;2.03;;;;;;;;;;5024445;28;20049;-70
2023/08/16 05:21:37;;;;;;;1.75;1.60;;;;;;;;;;5027107;28;20076;-70
2023/08/16 05:24:04;;;;;;;2.22;1.70;;;;;;;;;;5026304;28;20064;-71
2023/08/16 05:26:32;;;;;;;2.35;1.60;;;;;;;;;;5018910;28;20412;-71
2023/08/16 05:29:01;;;;;;;1.58;1.48;;;;;;;;;;5027286;28;20050;-71
2023/08/16 05:31:28;;;;;;;2.20;1.58;;;;;;;;;;5023161;28;20091;-71
2023/08/16 05:33:55;;;;;;;2.03;1.60;;;;;;;;;;5023005;28;20050;-72
2023/08/16 05:36:22;;;;;;;2.00;1.63;;;;;;;;;;5021515;28;20488;-71
2023/08/16 05:38:50;;;;;;;3.03;1.73;;;;;;;;;;5022022;28;20152;-71
2023/08/16 05:41:17;;;;;;;1.95;1.60;;;;;;;;;;5029283;28;20432;-70
2023/08/16 05:43:44;;;;;;;2.83;1.90;;;;;;;;;;5029317;28;20042;-71
2023/08/16 05:46:13;;;;;;;2.50;2.13;;;;;;;;;;5024929;28;20527;-72
2023/08/16 05:48:40;;;;;;;3.88;2.00;;;;;;;;;;5024738;28;20053;-72
2023/08/16 05:51:07;;;;;;;7.13;2.35;;;;;;;;;;5031375;28;20049;-71
2023/08/16 05:53:34;;;;;;;3.67;2.13;;;;;;;;;;5019984;28;20060;-72
2023/08/16 05:56:02;;;;;;;3.80;2.40;;;;;;;;;;5020720;28;20045;-71
2023/08/16 05:58:29;;;;;;;4.63;2.67;;;;;;;;;;5021453;28;20459;-71
2023/08/16 06:00:56;;;;;;;3.72;2.38;;;;;;;;;;5021305;28;20042;-72
2023/08/16 06:03:25;;;;;;;4.80;2.80;;;;;;;;;;5021583;28;20500;-71
2023/08/16 06:05:52;;;;;;;6.10;3.83;;;;;;;;;;5021120;28;20045;-70
2023/08/16 06:08:19;;;;;;;6.25;3.40;;;;;;;;;;5027734;28;20049;-70
2023/08/16 06:10:46;;;;;;;5.32;3.15;;;;;;;;;;5025479;28;20045;-71
2023/08/16 06:13:14;;;;;;;5.05;3.47;;;;;;;;;;5022980;28;20056;-71
2023/08/16 06:15:41;;;;;;;6.13;3.47;;;;;;;;;;5020641;28;20045;-70
2023/08/16 06:18:08;;;;;;;4.68;3.40;;;;;;;;;;5020118;28;20042;-72
2023/08/16 06:20:37;;;;;;;5.40;3.50;;;;;;;;;;5022349;28;20057;-71
2023/08/16 06:23:04;;;;;;;6.60;3.72;;;;;;;;;;5021995;28;20056;-71
2023/08/16 06:25:31;;;;;;;6.35;4.10;;;;;;;;;;5026415;28;20490;-71
2023/08/16 06:27:59;;;;;;;6.00;4.05;;;;;;;;;;5027036;28;20047;-71
2023/08/16 06:30:26;;;;;;;6.22;4.20;;;;;;;;;;5027238;28;20049;-72
2023/08/16 06:32:54;;;;;;;8.65;4.80;;;;;;;;;;5028920;28;20056;-72
2023/08/16 06:35:21;;;;;;;9.85;4.32;;;;;;;;;;5029111;28;20401;-72
2023/08/16 06:37:50;;;;;;;9.30;4.75;;;;;;;;;;5030963;28;20057;-72
2023/08/16 06:40:18;;;;;;;8.05;4.72;;;;;;;;;;5021989;28;20049;-71
2023/08/16 06:42:45;;;;;;;8.55;5.13;;;;;;;;;;5029697;28;20049;-71
2023/08/16 06:45:12;;;;;;;6.97;4.32;;;;;;;;;;5028251;28;20048;-72
2023/08/16 06:47:42;;;;;;;6.15;4.18;;;;;;;;;;5031114;28;20132;-72
2023/08/16 06:50:10;;;;;;;6.97;4.25;;;;;;;;;;5026925;28;20511;-71
2023/08/16 06:52:37;;;;;;;9.73;4.15;;;;;;;;;;5030410;28;20133;-72
2023/08/16 06:55:06;;;;;;;11.60;4.05;;;;;;;;;;5029933;28;20051;-71
2023/08/16 06:57:34;;;;;;;8.07;5.38;;;;;;;;;;5027280;28;20357;-72
2023/08/16 07:00:03;;;;;;;9.00;4.47;;;;;;;;;;5026704;28;20056;-70
2023/08/16 07:02:31;;;;;;;8.85;4.00;;;;;;;;;;5025861;28;20063;-70
2023/08/16 07:04:58;;;;;;;6.97;4.40;;;;;;;;;;5028010;28;20052;-70
2023/08/16 07:07:25;;;;;;;5.70;3.95;;;;;;;;;;5026148;28;20049;-70
2023/08/16 07:09:52;;;;;;;8.27;4.30;;;;;;;;;;5025411;28;20048;-71
2023/08/16 07:12:21;;;;;;;11.05;4.13;;;;;;;;;;5019303;28;20064;-71
2023/08/16 07:14:49;;;;;;;10.20;4.60;;;;;;;;;;5021417;28;20057;-72
2023/08/16 07:17:17;;;;;;;9.60;4.63;;;;;;;;;;5026373;28;20057;-71
2023/08/16 07:19:47;;;;;;;7.35;4.20;;;;;;;;;;5016496;28;20050;-72
2023/08/16 07:22:14;;;;;;;6.85;3.90;;;;;;;;;;5025229;28;20060;-73
2023/08/16 07:24:41;;;;;;;8.88;4.35;;;;;;;;;;5028052;28;20061;-71
2023/08/16 07:27:09;;;;;;;6.78;4.32;;;;;;;;;;5028605;28;20057;-72
2023/08/16 07:29:37;;;;;;;5.47;4.30;;;;;;;;;;5030052;28;20045;-72
2023/08/16 07:32:05;;;;;;;5.55;4.18;;;;;;;;;;5030171;28;20052;-72
2023/08/16 07:34:32;;;;;;;7.15;2.70;;;;;;;;;;5028646;28;20060;-71
2023/08/16 07:36:59;;;;;;;6.60;3.10;;;;;;;;;;5028108;28;20065;-71
2023/08/16 07:39:31;;;;;;;6.30;3.45;;;;;;;;;;5029998;28;20045;-71
2023/08/16 07:41:58;;;;;;;7.35;3.88;;;;;;;;;;5026977;28;20049;-72
2023/08/16 07:44:25;;;;;;;6.05;3.70;;;;;;;;;;5028914;28;20061;-71
2023/08/16 07:46:54;;;;;;;4.57;3.42;;;;;;;;;;5026846;28;20090;-71
2023/08/16 07:49:21;;;;;;;3.92;2.67;;;;;;;;;;5030620;28;20124;-72
2023/08/16 07:51:48;;;;;;;3.70;2.30;;;;;;;;;;5025091;28;20061;-71
2023/08/16 07:54:16;;;;;;;6.00;2.33;;;;;;;;;;5026642;28;20061;-72
2023/08/16 07:56:43;;;;;;;8.60;2.80;;;;;;;;;;5023211;28;20472;-71
2023/08/16 07:59:10;;;;;;;5.00;2.55;;;;;;;;;;5030045;28;20052;-72
2023/08/16 08:01:37;;;;;;;3.90;2.90;;;;;;;;;;5023191;28;20097;-72
2023/08/16 08:04:06;;;;;;;7.00;3.05;;;;;;;;;;5025189;28;20450;-72
2023/08/16 08:06:34;;;;;;;6.63;2.90;;;;;;;;;;5028835;28;20049;-71
2023/08/16 08:09:01;;;;;;;5.13;3.03;;;;;;;;;;5029094;28;20045;-72
2023/08/16 08:11:28;;;;;;;3.60;3.00;;;;;;;;;;5029277;28;20049;-71
2023/08/16 08:13:56;;;;;;;7.20;3.83;;;;;;;;;;5023368;28;20049;-71
2023/08/16 08:16:24;;;;;;;7.47;3.25;;;;;;;;;;5028713;28;20052;-71
2023/08/16 08:18:51;;;;;;;4.45;2.50;;;;;;;;;;5028651;28;20461;-72
2023/08/16 08:21:20;;;;;;;5.10;2.75;;;;;;;;;;5030057;28;20045;-71
2023/08/16 08:23:47;;;;;;;5.50;2.70;;;;;;;;;;5027449;28;20049;-72
2023/08/16 08:26:14;;;;;;;7.65;2.80;;;;;;;;;;5028401;28;20046;-71
2023/08/16 08:28:41;;;;;;;3.90;2.00;;;;;;;;;;5028112;28;20046;-71
2023/08/16 08:31:09;;;;;;;3.40;1.88;;;;;;;;;;5021417;28;20049;-71
2023/08/16 08:33:36;;;;;;;3.85;1.70;;;;;;;;;;5024112;28;20048;-71
2023/08/16 08:36:04;;;;;;;4.97;1.73;;;;;;;;;;5022749;28;20654;-72
2023/08/16 08:38:32;;;;;;;4.28;1.60;;;;;;;;;;5027011;28;20444;-71
2023/08/16 08:41:00;;;;;;;2.40;1.48;;;;;;;;;;5026357;28;20421;-72
2023/08/16 08:43:29;;;;;;;4.15;1.63;;;;;;;;;;5021043;28;20053;-71
2023/08/16 08:45:58;;;;;;;2.50;1.35;;;;;;;;;;5022748;28;20041;-73
2023/08/16 08:48:26;;;;;;;4.45;1.98;;;;;;;;;;5022344;28;20684;-72
2023/08/16 08:50:53;;;;;;;4.80;1.48;;;;;;;;;;5027560;28;20484;-72
2023/08/16 08:53:20;;;;;;;7.35;1.75;;;;;;;;;;5020528;28;20054;-72
2023/08/16 08:55:52;;;;;;;2.90;1.50;;;;;;;;;;5026718;28;20056;-72
2023/08/16 08:58:19;;;;;;;2.03;1.35;;;;;;;;;;5028326;28;20492;-72
2023/08/16 09:00:47;;;;;;;2.25;1.63;;;;;;;;;;5021824;28;20504;-72
2023/08/16 09:03:14;;;;;;;4.40;1.65;;;;;;;;;;5027739;28;20050;-72
2023/08/16 09:05:42;;;;;;;3.58;1.70;;;;;;;;;;5023379;28;20049;-72
2023/08/16 09:08:13;;;;;;;2.60;1.65;;;;;;;;;;5023723;28;20479;-72
2023/08/16 09:10:41;;;;;;;5.28;1.98;;;;;;;;;;5027031;28;20057;-72
2023/08/16 09:13:10;;;;;;;4.65;1.92;;;;;;;;;;5027349;28;20049;-72
2023/08/16 09:15:38;;;;;;;4.13;1.95;;;;;;;;;;5032081;28;20052;-72
2023/08/16 09:18:10;;;;;;;2.95;1.20;;;;;;;;;;5032082;28;20049;-72
2023/08/16 09:20:37;;;;;;;2.35;1.42;;;;;;;;;;5030056;28;20056;-72
2023/08/16 09:23:05;;;;;;;3.50;1.30;;;;;;;;;;5032922;28;20053;-72
2023/08/16 09:25:32;;;;;;;2.70;1.20;;;;;;;;;;5030179;28;20057;-72
2023/08/16 09:28:01;;;;;;;1.52;0.90;;;;;;;;;;5031224;28;20060;-72
2023/08/16 09:30:30;;;;;;;1.33;0.90;;;;;;;;;;5031382;28;20095;-72
2023/08/16 09:32:57;;;;;;;3.65;1.48;;;;;;;;;;5031539;28;20061;-72
2023/08/16 09:35:29;;;;;;;2.60;1.30;;;;;;;;;;5028224;28;20050;-72
2023/08/16 09:37:59;;;;;;;2.80;1.35;;;;;;;;;;5023367;28;20054;-72
2023/08/16 09:40:27;;;;;;;5.30;2.00;;;;;;;;;;5027655;28;20385;-72
2023/08/16 09:42:59;;;;;;;2.20;1.30;;;;;;;;;;5031046;28;20060;-72
2023/08/16 09:45:33;;;;;;;2.30;1.40;;;;;;;;;;5030893;28;20119;-72
2023/08/16 09:48:01;;;;;;;4.38;1.60;;;;;;;;;;5022445;28;20382;-72
2023/08/16 09:50:29;;;;;;;3.03;1.40;;;;;;;;;;5027593;28;20071;-72
2023/08/16 09:52:58;;;;;;;4.93;1.45;;;;;;;;;;5030891;28;20556;-69
2023/08/16 09:55:29;;;;;;;3.65;1.50;;;;;;;;;;5032063;28;20051;-71
2023/08/16 09:57:57;;;;;;;2.47;1.33;;;;;;;;;;5031106;28;20124;-72
2023/08/16 10:00:25;;;;;;;2.08;1.20;;;;;;;;;;5029756;28;20111;-72
2023/08/16 10:02:54;;;;;;;2.60;1.40;;;;;;;;;;5029516;28;20061;-73
2023/08/16 10:05:22;;;;;;;2.20;0.95;;;;;;;;;;5026382;28;20056;-71
2023/08/16 10:07:49;;;;;;;3.28;1.40;;;;;;;;;;5030583;28;20046;-70
2023/08/16 10:10:17;;;;;;;3.72;1.20;;;;;;;;;;5027490;28;20050;-73
2023/08/16 10:12:44;;;;;;;2.13;1.42;;;;;;;;;;5030911;28;20053;-72
2023/08/16 10:15:12;;;;;;;2.78;1.40;;;;;;;;;;5029776;28;20068;-72
2023/08/16 10:17:40;;;;;;;3.50;0.90;;;;;;;;;;5029219;28;20045;-72
2023/08/16 10:20:12;;;;;;;2.63;1.20;;;;;;;;;;5029012;28;20045;-72
2023/08/16 10:22:43;;;;;;;2.50;1.15;;;;;;;;;;5029336;28;20049;-72
2023/08/16 10:25:15;;;;;;;4.35;1.10;;;;;;;;;;5027058;28;20076;-72
2023/08/16 10:27:44;;;;;;;3.85;1.70;;;;;;;;;;5028815;28;20065;-72
2023/08/16 10:30:14;;;;;;;2.90;0.80;;;;;;;;;;5028687;28;20069;-72
2023/08/16 10:32:43;;;;;;;1.77;0.95;;;;;;;;;;5028293;28;20057;-72
2023/08/16 10:35:12;;;;;;;2.45;0.98;;;;;;;;;;5030089;28;20041;-72
2023/08/16 10:37:40;;;;;;;1.15;0.80;;;;;;;;;;5027784;28;20156;-72
2023/08/16 10:40:17;;;;;;;1.83;0.77;;;;;;;;;;5029198;28;20467;-72
2023/08/16 10:42:50;;;;;;;1.70;0.63;;;;;;;;;;5030527;28;20049;-72
2023/08/16 10:45:17;;;;;;;;;;;;;;;;;;5027643;28;20050;-72
2023/08/16 10:47:44;;;;;;;2.75;1.10;;;;;;;;;;5029631;28;19925;-72
2023/08/16 10:50:12;;;;;;;3.38;0.90;;;;;;;;;;5023660;28;20625;-72
2023/08/16 10:52:40;;;;;;;1.75;0.70;;;;;;;;;;5028610;28;20053;-72
2023/08/16 10:55:08;;;;;;;1.98;0.90;;;;;;;;;;5024660;28;20045;-72
2023/08/16 10:57:35;;;;;;;1.90;1.20;;;;;;;;;;5021558;28;20038;-73
2023/08/16 11:00:05;;;;;;;6.05;2.83;;;;;;;;;;5020024;28;20050;-72
2023/08/16 11:02:33;;;;;;;6.53;2.25;;;;;;;;;;5024557;28;20046;-73
2023/08/16 11:05:00;;;;;;;3.72;2.05;;;;;;;;;;5021473;28;20049;-72
2023/08/16 11:07:29;;;;;;;5.22;1.30;;;;;;;;;;5029497;28;20053;-72
2023/08/16 11:10:00;;;;;;;2.25;1.02;;;;;;;;;;5026978;28;20046;-72
2023/08/16 11:12:31;;;;;;;2.00;1.10;;;;;;;;;;5025901;28;20062;-72
2023/08/16 11:14:58;;;;;;;2.88;1.13;;;;;;;;;;5025337;28;20562;-72
2023/08/16 11:17:27;;;;;;;2.90;0.98;;;;;;;;;;5029512;28;20049;-73
2023/08/16 11:19:55;;;;;;;2.22;0.90;;;;;;;;;;5024251;28;20057;-73
2023/08/16 11:22:22;;;;;;;2.17;0.80;;;;;;;;;;5028600;28;20515;-72
2023/08/16 11:24:51;;;;;;;3.10;0.80;;;;;;;;;;5029859;28;20057;-73
2023/08/16 11:27:22;;;;;;;1.20;0.70;;;;;;;;;;5021415;28;20064;-74
2023/08/16 11:29:50;;;;;;;2.50;1.00;;;;;;;;;;5027300;28;20068;-77
2023/08/16 11:32:18;;;;;;;1.52;0.88;;;;;;;;;;5024667;28;20380;-72
2023/08/16 11:34:45;;;;;;;0.90;0.55;;;;;;;;;;5024893;28;20145;-71
2023/08/16 11:37:19;;;;;;;1.00;0.60;;;;;;;;;;5017827;28;20121;-71
2023/08/16 11:39:47;;;;;;;0.70;0.60;;;;;;;;;;5029295;28;20054;-72
2023/08/16 11:42:15;;;;;;;1.52;0.73;;;;;;;;;;5028795;28;20049;-72
2023/08/16 11:44:42;;;;;;;1.75;0.68;;;;;;;;;;5024752;28;20130;-71
2023/08/16 11:47:13;;;;;;;2.25;0.70;;;;;;;;;;5028802;28;20049;-72
2023/08/16 11:49:40;;;;;;;1.73;0.90;;;;;;;;;;5025462;28;20128;-72
2023/08/16 11:52:07;;;;;;;2.00;0.80;;;;;;;;;;5027332;28;20045;-72
2023/08/16 11:54:35;;;;;;;2.72;0.68;;;;;;;;;;5029798;28;20057;-72
2023/08/16 11:57:02;;;;;;;3.25;0.70;;;;;;;;;;5026904;28;20459;-72
2023/08/16 11:59:32;;;;;;;1.98;0.70;;;;;;;;;;5029352;28;20049;-72
2023/08/16 12:02:06;;;;;;;1.77;0.77;;;;;;;;;;5026384;28;20107;-72
2023/08/16 12:04:33;;;;;;;0.98;0.70;;;;;;;;;;5025643;28;20052;-72
2023/08/16 12:07:01;;;;;;;0.80;0.60;;;;;;;;;;5028432;28;20037;-72
2023/08/16 12:09:30;;;;;;;1.65;0.90;;;;;;;;;;5022625;28;20053;-72
2023/08/16 12:11:57;;;;;;;1.88;0.90;;;;;;;;;;5026016;28;20052;-72
2023/08/16 12:14:24;;;;;;;0.70;0.70;;;;;;;;;;5020881;28;20509;-72
2023/08/16 12:16:53;;;;;;;1.58;1.10;;;;;;;;;;5023653;28;20038;-72
2023/08/16 12:19:20;;;;;;;1.63;0.93;;;;;;;;;;5021980;28;20144;-72
2023/08/16 12:21:48;;;;;;;3.45;0.90;;;;;;;;;;5028635;28;20053;-72
2023/08/16 12:24:15;;;;;;;2.88;1.20;;;;;;;;;;5024875;28;20135;-72
2023/08/16 12:26:42;;;;;;;2.13;0.98;;;;;;;;;;5027303;28;20505;-72
2023/08/16 12:29:10;;;;;;;2.15;0.93;;;;;;;;;;5027378;28;20088;-72
2023/08/16 12:31:37;;;;;;;1.45;1.20;;;;;;;;;;5027873;28;20056;-72
2023/08/16 12:34:06;;;;;;;2.60;1.10;;;;;;;;;;5028349;28;20037;-72
2023/08/16 12:36:33;;;;;;;1.52;1.05;;;;;;;;;;5020754;28;20077;-72
2023/08/16 12:39:01;;;;;;;3.28;1.00;;;;;;;;;;5024473;28;20045;-72
2023/08/16 12:41:28;;;;;;;2.20;1.10;;;;;;;;;;5020829;28;20053;-72
2023/08/16 12:43:55;;;;;;;2.40;1.00;;;;;;;;;;5022349;28;20049;-72
2023/08/16 12:46:22;;;;;;;3.17;1.17;;;;;;;;;;5022198;28;20058;-72
2023/08/16 12:48:50;;;;;;;3.03;1.95;;;;;;;;;;5029987;28;20068;-72
2023/08/16 12:51:18;;;;;;;2.67;1.10;;;;;;;;;;5023843;28;20051;-72
2023/08/16 12:53:46;;;;;;;2.03;1.00;;;;;;;;;;5029059;28;20057;-73
2023/08/16 12:56:13;;;;;;;5.80;1.40;;;;;;;;;;5027441;28;20129;-72
2023/08/16 12:58:40;;;;;;;1.38;1.00;;;;;;;;;;5025632;28;20056;-72
2023/08/16 13:01:08;;;;;;;2.25;1.20;;;;;;;;;;5028261;28;20053;-72
2023/08/16 13:03:36;;;;;;;1.45;1.17;;;;;;;;;;5028478;28;20357;-72
2023/08/16 13:06:04;;;;;;;2.30;1.20;;;;;;;;;;5022449;28;20049;-72
2023/08/16 13:08:32;;;;;;;3.35;0.95;;;;;;;;;;5030044;28;20049;-72
2023/08/16 13:11:00;;;;;;;3.92;1.52;;;;;;;;;;5028368;28;20060;-72
2023/08/16 13:13:27;;;;;;;1.80;1.10;;;;;;;;;;5026815;28;20058;-72
2023/08/16 13:15:54;;;;;;;2.30;1.10;;;;;;;;;;5028809;28;20405;-72
2023/08/16 13:18:21;;;;;;;1.52;1.05;;;;;;;;;;5027965;28;20057;-73
2023/08/16 13:20:49;;;;;;;3.10;1.15;;;;;;;;;;5028358;28;20137;-73
2023/08/16 13:23:16;;;;;;;3.63;1.40;;;;;;;;;;5029528;28;20049;-73
2023/08/16 13:25:45;;;;;;;1.30;1.20;;;;;;;;;;5025368;28;20058;-73
2023/08/16 13:28:13;;;;;;;2.17;1.23;;;;;;;;;;5025883;28;20052;-73
2023/08/16 13:30:41;;;;;;;1.33;1.08;;;;;;;;;;5027039;28;20052;-72
2023/08/16 13:33:09;;;;;;;2.38;1.13;;;;;;;;;;5026627;28;20107;-72
2023/08/16 13:35:36;;;;;;;3.47;1.20;;;;;;;;;;5024295;28;20146;-73
2023/08/16 13:38:04;;;;;;;1.85;1.08;;;;;;;;;;5027561;28;20063;-72
2023/08/16 13:40:31;;;;;;;2.03;1.10;;;;;;;;;;5027396;28;20053;-73
2023/08/16 13:43:00;;;;;;;2.22;1.27;;;;;;;;;;5021300;28;20125;-72
2023/08/16 13:45:27;;;;;;;2.95;1.20;;;;;;;;;;5017294;28;20054;-73
2023/08/16 13:47:55;;;;;;;4.82;1.17;;;;;;;;;;5027798;28;20065;-73
2023/08/16 13:50:22;;;;;;;2.88;1.20;;;;;;;;;;5023995;28;20054;-73
2023/08/16 13:52:49;;;;;;;1.98;1.40;;;;;;;;;;5029320;28;20050;-72
2023/08/16 13:55:17;;;;;;;1.70;1.02;;;;;;;;;;5026664;28;20049;-73
2023/08/16 13:57:44;;;;;;;2.55;1.13;;;;;;;;;;5029036;28;20064;-72
2023/08/16 14:00:13;;;;;;;2.38;1.08;;;;;;;;;;5025284;28;20053;-72
2023/08/16 14:02:41;;;;;;;1.67;1.10;;;;;;;;;;5029472;28;20041;-72
2023/08/16 14:05:08;;;;;;;2.72;1.10;;;;;;;;;;5027277;28;20046;-72
2023/08/16 14:07:35;;;;;;;1.35;1.20;;;;;;;;;;5030756;28;20428;-72
2023/08/16 14:10:04;;;;;;;1.30;1.10;;;;;;;;;;5030679;28;20413;-72
2023/08/16 14:12:31;;;;;;;4.88;1.25;;;;;;;;;;5031740;28;20053;-73
2023/08/16 14:14:58;;;;;;;1.75;1.10;;;;;;;;;;5030854;28;20049;-73
2023/08/16 14:17:27;;;;;;;1.33;1.02;;;;;;;;;;5032400;28;20041;-73
2023/08/16 14:19:54;;;;;;;1.73;1.00;;;;;;;;;;5028169;28;20064;-72
2023/08/16 14:22:22;;;;;;;1.15;1.05;;;;;;;;;;5030499;28;20099;-73
2023/08/16 14:24:49;;;;;;;3.55;1.20;;;;;;;;;;5032604;28;20049;-72
2023/08/16 14:27:16;;;;;;;1.70;1.10;;;;;;;;;;5029911;28;20053;-73
2023/08/16 14:29:43;;;;;;;1.48;1.10;;;;;;;;;;5031466;28;20056;-73
2023/08/16 14:32:11;;;;;;;1.55;1.10;;;;;;;;;;5030591;28;20052;-72
2023/08/16 14:34:39;;;;;;;3.00;1.02;;;;;;;;;;5032392;28;20054;-73
2023/08/16 14:37:06;;;;;;;3.03;1.27;;;;;;;;;;5031207;28;20049;-72
2023/08/16 14:39:34;;;;;;;1.58;1.10;;;;;;;;;;5032378;28;20052;-72
2023/08/16 14:42:01;;;;;;;2.28;1.10;;;;;;;;;;5030302;28;20053;-73
2023/08/16 14:44:29;;;;;;;3.65;1.25;;;;;;;;;;5029529;28;20049;-73
2023/08/16 14:46:57;;;;;;;1.33;1.23;;;;;;;;;;5030713;28;20068;-72